Time;durP1;ratioP1;P1;durP2;ratioP2;P2;SDS_P1;SDS_P2;PMS_P1;PMS_P2;Temp;Humidity;BMP_temperature;BMP_pressure;BME280_temperature;BME280_humidity;BME280_pressure;Samples;Min_cycle;Max_cycle;Signal;HPM_P1;HPM_P2
2022/11/07 00:01:58;;;;;;;;;;;10.40;99.90;;;;;;12577526;28;19932;-82
2022/11/07 00:08:00;;;;;;;;;;;10.30;99.90;;;;;;12581216;28;19925;-82
2022/11/07 00:14:01;;;;;;;;;;;10.40;99.90;;;;;;12564778;28;19928;-83
2022/11/07 00:20:03;;;;;;;;;;;10.40;99.90;;;;;;12579969;28;19935;-82
2022/11/07 00:26:06;;;;;;;;;;;10.40;99.90;;;;;;12575163;28;19958;-82
2022/11/07 00:32:08;;;;;;;;;;;10.40;99.90;;;;;;12580837;28;20453;-82
2022/11/07 00:38:10;;;;;;;;;;;10.40;99.90;;;;;;12599109;28;19924;-83
2022/11/07 00:44:11;;;;;;;;;;;10.40;99.90;;;;;;12575978;28;19929;-83
2022/11/07 00:50:13;;;;;;;;;;;10.50;99.90;;;;;;12592475;28;19925;-83
2022/11/07 00:56:17;;;;;;;;;;;10.50;99.90;;;;;;12578947;28;20299;-83
2022/11/07 01:02:20;;;;;;;;;;;10.50;99.90;;;;;;12579437;28;20399;-83
2022/11/07 01:08:22;;;;;;;;;;;10.50;99.90;;;;;;12579376;28;19936;-83
2022/11/07 01:14:23;;;;;;;;;;;10.50;99.90;;;;;;12557338;28;19924;-84
2022/11/07 01:20:25;;;;;;;;;;;10.60;99.90;;;;;;12585611;28;19940;-83
2022/11/07 01:26:27;;;;;;;;;;;10.60;99.90;;;;;;12581916;28;19948;-83
2022/11/07 01:32:28;;;;;;;;;;;10.50;99.90;;;;;;12586208;28;19955;-83
2022/11/07 01:38:30;;;;;;;;;;;10.70;99.90;;;;;;12577365;28;19931;-83
2022/11/07 01:44:35;;;;;;;;;;;10.60;99.90;;;;;;12574096;28;19931;-83
2022/11/07 01:50:37;;;;;;;;;;;10.70;99.90;;;;;;12573625;28;20410;-83
2022/11/07 01:56:40;;;;;;;;;;;10.70;99.90;;;;;;12589027;28;19925;-83
2022/11/07 02:02:43;;;;;;;;;;;10.70;99.90;;;;;;12579929;28;19935;-83
2022/11/07 02:08:45;;;;;;;;;;;10.80;99.90;;;;;;12581051;28;19947;-83
2022/11/07 02:14:48;;;;;;;;;;;10.70;99.90;;;;;;12575288;28;19936;-84
2022/11/07 02:20:50;;;;;;;;;;;10.80;99.90;;;;;;12579947;28;19978;-83
2022/11/07 02:26:53;;;;;;;;;;;10.70;99.90;;;;;;12588859;28;20687;-83
2022/11/07 02:32:55;;;;;;;;;;;10.80;99.90;;;;;;12582909;28;19975;-82
2022/11/07 02:38:58;;;;;;;;;;;10.80;99.90;;;;;;12583648;28;19932;-83
2022/11/07 02:45:00;;;;;;;;;;;10.80;99.90;;;;;;12593721;28;19925;-82
2022/11/07 02:51:01;;;;;;;;;;;10.80;99.90;;;;;;12580491;28;19933;-83
2022/11/07 02:57:03;;;;;;;;;;;10.80;99.90;;;;;;12579405;28;19931;-83
2022/11/07 03:03:05;;;;;;;;;;;10.80;99.90;;;;;;12579791;28;19931;-83
2022/11/07 03:09:06;;;;;;;;;;;10.90;99.90;;;;;;12565444;28;19928;-83
2022/11/07 03:15:09;;;;;;;;;;;10.70;99.90;;;;;;12597841;28;19943;-83
2022/11/07 03:21:10;;;;;;;;;;;10.70;99.90;;;;;;12578071;28;19924;-82
2022/11/07 03:27:12;;;;;;;;;;;10.70;99.90;;;;;;12584085;28;19924;-83
2022/11/07 03:33:14;;;;;;;;;;;10.70;99.90;;;;;;12580086;28;19932;-83
2022/11/07 03:39:16;;;;;;;;;;;10.70;99.90;;;;;;12574996;28;19932;-84
2022/11/07 03:45:25;;;;;;;;;;;10.80;99.90;;;;;;12579191;28;20382;-83
2022/11/07 03:51:26;;;;;;;;;;;10.90;99.90;;;;;;12582809;28;20347;-83
2022/11/07 03:57:28;;;;;;;;;;;11.00;99.90;;;;;;12584073;28;19924;-83
2022/11/07 04:03:30;;;;;;;;;;;10.90;99.90;;;;;;12575678;28;19936;-83
2022/11/07 04:09:32;;;;;;;;;;;11.10;99.90;;;;;;12574740;28;20773;-83
2022/11/07 04:21:55;;;;;;;;;;;11.00;99.90;;;;;;12565642;28;19932;-83
2022/11/07 04:27:57;;;;;;;;;;;11.10;99.90;;;;;;12573332;28;20313;-83
2022/11/07 04:33:59;;;;;;;;;;;11.00;99.90;;;;;;12571089;28;19924;-82
2022/11/07 04:40:00;;;;;;;;;;;10.90;99.90;;;;;;12565707;28;19924;-82
2022/11/07 04:46:02;;;;;;;;;;;10.80;99.90;;;;;;12578276;28;19932;-83
2022/11/07 04:52:04;;;;;;;;;;;10.80;99.90;;;;;;12573996;28;19931;-82
2022/11/07 04:58:06;;;;;;;;;;;10.80;99.90;;;;;;12583571;28;19925;-83
2022/11/07 05:04:07;;;;;;;;;;;10.80;99.90;;;;;;12582855;28;19940;-83
2022/11/07 05:10:19;;;;;;;;;;;10.90;99.90;;;;;;12580985;28;19930;-83
2022/11/07 05:16:21;;;;;;;;;;;10.90;99.90;;;;;;12597770;28;20381;-83
2022/11/07 05:28:42;;;;;;;;;;;11.00;99.90;;;;;;12578184;28;20380;-84
2022/11/07 05:34:44;;;;;;;;;;;10.90;99.90;;;;;;12575032;28;19925;-84
2022/11/07 05:40:46;;;;;;;;;;;10.90;99.90;;;;;;12590921;28;20383;-83
2022/11/07 05:46:47;;;;;;;;;;;10.90;99.90;;;;;;12569981;28;20585;-83
2022/11/07 05:52:49;;;;;;;;;;;10.90;99.90;;;;;;12586884;28;19924;-83
2022/11/07 05:58:51;;;;;;;;;;;11.00;99.90;;;;;;12576981;28;20389;-84
2022/11/07 06:04:53;;;;;;;;;;;11.00;99.90;;;;;;12588251;28;20395;-83
2022/11/07 06:10:54;;;;;;;;;;;11.00;99.90;;;;;;12574572;28;19928;-83
2022/11/07 06:16:56;;;;;;;;;;;11.00;99.90;;;;;;12582016;28;19928;-82
2022/11/07 06:23:02;;;;;;;;;;;11.00;99.90;;;;;;12585360;28;19955;-83
2022/11/07 06:29:03;;;;;;;;;;;11.00;99.90;;;;;;12587318;28;20340;-84
2022/11/07 06:35:05;;;;;;;;;;;11.10;99.90;;;;;;12571043;28;19932;-84
2022/11/07 06:41:11;;;;;;;;;;;11.00;99.90;;;;;;12585186;28;19942;-84
2022/11/07 06:47:13;;;;;;;;;;;11.00;99.90;;;;;;12586781;28;19928;-85
2022/11/07 06:53:15;;;;;;;;;;;11.00;99.90;;;;;;12582847;28;19924;-84
2022/11/07 06:59:17;;;;;;;;;;;11.00;99.90;;;;;;12578482;28;20288;-84
2022/11/07 07:05:18;;;;;;;;;;;11.10;99.90;;;;;;12582666;28;19924;-84
2022/11/07 07:11:21;;;;;;;;;;;11.10;99.90;;;;;;12580312;28;19979;-84
2022/11/07 07:17:23;;;;;;;;;;;11.10;99.90;;;;;;12569963;28;19932;-84
2022/11/07 07:23:25;;;;;;;;;;;11.10;99.90;;;;;;12581714;28;19943;-86
2022/11/07 07:29:26;;;;;;;;;;;11.10;99.90;;;;;;12578440;28;19925;-84
2022/11/07 07:35:28;;;;;;;;;;;11.10;99.90;;;;;;12572722;28;20303;-84
2022/11/07 07:41:30;;;;;;;;;;;11.10;99.90;;;;;;12585302;28;19928;-85
2022/11/07 07:47:38;;;;;;;;;;;11.20;99.90;;;;;;12579778;28;19933;-84
2022/11/07 07:53:40;;;;;;;;;;;11.30;99.90;;;;;;12579571;28;19925;-84
2022/11/07 07:59:42;;;;;;;;;;;11.30;99.90;;;;;;12568951;28;20354;-84
2022/11/07 08:05:43;;;;;;;;;;;11.30;99.90;;;;;;12575384;28;19936;-85
2022/11/07 08:11:45;;;;;;;;;;;11.40;99.90;;;;;;12579477;28;19924;-85
2022/11/07 08:17:46;;;;;;;;;;;11.40;99.90;;;;;;12580041;28;20374;-85
2022/11/07 08:23:52;;;;;;;;;;;11.50;99.90;;;;;;12573900;28;19933;-85
2022/11/07 08:29:53;;;;;;;;;;;11.60;99.90;;;;;;12574653;28;19925;-85
2022/11/07 08:35:56;;;;;;;;;;;11.60;99.90;;;;;;12572306;28;19950;-84
2022/11/07 08:41:57;;;;;;;;;;;11.70;99.90;;;;;;12578013;28;19978;-84
2022/11/07 08:47:59;;;;;;;;;;;11.70;99.90;;;;;;12570894;28;19931;-84
2022/11/07 08:54:01;;;;;;;;;;;11.80;99.90;;;;;;12572890;28;19931;-85
2022/11/07 09:00:03;;;;;;;;;;;11.90;99.90;;;;;;12571446;28;19928;-85
2022/11/07 09:06:05;;;;;;;;;;;11.90;99.90;;;;;;12579876;28;20308;-85
2022/11/07 09:12:07;;;;;;;;;;;12.00;99.90;;;;;;12575579;28;19924;-84
2022/11/07 09:18:09;;;;;;;;;;;12.10;99.90;;;;;;12578488;28;19936;-84
2022/11/07 09:24:11;;;;;;;;;;;12.40;99.90;;;;;;12574902;28;19928;-85
2022/11/07 09:30:12;;;;;;;;;;;12.50;99.90;;;;;;12569896;28;19931;-85
2022/11/07 09:36:14;;;;;;;;;;;12.50;99.90;;;;;;12572077;28;20368;-85
2022/11/07 09:42:19;;;;;;;;;;;12.60;99.90;;;;;;12569240;28;20022;-85
2022/11/07 09:48:23;;;;;;;;;;;12.70;99.90;;;;;;12568811;28;19931;-85
2022/11/07 09:54:26;;;;;;;;;;;12.70;99.90;;;;;;12571337;28;19928;-86
2022/11/07 10:00:28;;;;;;;;;;;12.90;99.90;;;;;;12578518;28;19932;-85
2022/11/07 10:06:32;;;;;;;;;;;13.00;99.90;;;;;;12565972;28;19935;-84
2022/11/07 10:12:46;;;;;;;;;;;13.10;99.90;;;;;;12569350;28;19931;-85
2022/11/07 10:19:06;;;;;;;;;;;13.20;99.90;;;;;;12592751;28;19940;-84
2022/11/07 10:25:25;;;;;;;;;;;13.20;99.90;;;;;;12587191;28;21644;-85
2022/11/07 10:31:32;;;;;;;;;;;13.40;99.90;;;;;;12580418;28;20314;-85
2022/11/07 10:37:34;;;;;;;;;;;13.30;99.90;;;;;;12581049;28;19924;-86
2022/11/07 10:43:39;;;;;;;;;;;13.20;99.90;;;;;;12580213;28;19925;-85
2022/11/07 10:49:51;;;;;;;;;;;13.40;99.90;;;;;;12574925;28;19924;-85
2022/11/07 10:55:53;;;;;;;;;;;13.40;99.90;;;;;;12608228;28;19929;-86
2022/11/07 11:01:56;;;;;;;;;;;13.60;99.90;;;;;;12573797;28;19936;-84
2022/11/07 11:08:15;;;;;;;;;;;13.70;99.90;;;;;;12587079;28;19967;-85
2022/11/07 11:14:19;;;;;;;;;;;13.80;99.90;;;;;;12595527;28;19932;-86
2022/11/07 11:20:38;;;;;;;;;;;13.90;99.90;;;;;;12573798;28;19933;-85
2022/11/07 11:26:42;;;;;;;;;;;14.00;99.90;;;;;;12582253;28;19952;-85
2022/11/07 11:32:44;;;;;;;;;;;14.00;99.90;;;;;;12579603;28;19925;-84
2022/11/07 11:38:51;;;;;;;;;;;14.10;99.90;;;;;;12590944;28;19929;-85
2022/11/07 11:44:55;;;;;;;;;;;14.20;99.90;;;;;;12589347;28;20295;-84
2022/11/07 11:51:05;;;;;;;;;;;14.20;99.90;;;;;;12597745;28;20304;-85
2022/11/07 11:57:10;;;;;;;;;;;14.20;99.90;;;;;;12577934;28;19929;-85
2022/11/07 12:03:44;;;;;;;;;;;14.10;99.90;;;;;;12570310;28;19929;-85
2022/11/07 12:09:58;;;;;;;;;;;13.90;99.90;;;;;;12543450;28;19924;-85
2022/11/07 12:16:19;;;;;;;;;;;13.80;99.90;;;;;;12575959;28;19928;-85
2022/11/07 12:22:32;;;;;;;;;;;13.70;99.90;;;;;;12581916;28;19940;-84
2022/11/07 12:28:34;;;;;;;;;;;13.60;99.90;;;;;;12569705;28;19925;-85
2022/11/07 12:34:44;;;;;;;;;;;13.40;99.90;;;;;;12559326;28;20046;-86
2022/11/07 12:41:02;;;;;;;;;;;13.40;99.90;;;;;;12598982;28;19925;-85
2022/11/07 12:47:12;;;;;;;;;;;13.40;99.90;;;;;;12580531;28;19963;-85
2022/11/07 12:53:17;;;;;;;;;;;13.20;99.90;;;;;;12584219;28;19928;-85
2022/11/07 12:59:24;;;;;;;;;;;13.10;99.90;;;;;;12583918;28;19925;-84
2022/11/07 13:05:41;;;;;;;;;;;13.00;99.90;;;;;;12576763;28;19925;-86
2022/11/07 13:11:47;;;;;;;;;;;13.00;99.90;;;;;;12576295;28;20372;-85
2022/11/07 13:17:49;;;;;;;;;;;13.00;99.90;;;;;;12595138;28;20128;-84
2022/11/07 13:23:51;;;;;;;;;;;12.90;99.90;;;;;;12622762;28;19951;-86
2022/11/07 13:29:52;;;;;;;;;;;12.90;99.90;;;;;;12635275;28;20019;-85
2022/11/07 13:35:56;;;;;;;;;;;12.90;99.90;;;;;;12619277;28;19912;-85
2022/11/07 13:41:58;;;;;;;;;;;12.80;99.90;;;;;;12629144;28;19967;-85
2022/11/07 13:48:02;;;;;;;;;;;12.90;99.90;;;;;;12624098;28;19912;-86
2022/11/07 13:54:16;;;;;;;;;;;12.90;99.90;;;;;;12607920;28;20047;-85
2022/11/07 14:00:19;;;;;;;;;;;13.00;99.90;;;;;;12608095;28;19932;-85
2022/11/07 14:06:21;;;;;;;;;;;13.00;99.90;;;;;;12595729;28;19992;-85
2022/11/07 14:12:23;;;;;;;;;;;13.00;99.90;;;;;;12604100;28;19924;-85
2022/11/07 14:18:32;;;;;;;;;;;13.00;99.90;;;;;;12601881;28;20368;-85
2022/11/07 14:24:34;;;;;;;;;;;13.10;99.90;;;;;;12586060;28;19932;-85
2022/11/07 14:30:39;;;;;;;;;;;13.00;99.90;;;;;;12587766;28;19932;-85
2022/11/07 14:36:51;;;;;;;;;;;13.00;99.90;;;;;;12593903;28;19932;-84
2022/11/07 14:42:53;;;;;;;;;;;13.10;99.90;;;;;;12588279;28;19931;-85
2022/11/07 14:48:55;;;;;;;;;;;13.20;99.90;;;;;;12587183;28;19925;-85
2022/11/07 14:55:04;;;;;;;;;;;13.10;99.90;;;;;;12572074;28;19955;-85
2022/11/07 15:01:06;;;;;;;;;;;13.20;99.90;;;;;;12590323;28;19925;-85
2022/11/07 15:07:16;;;;;;;;;;;13.20;99.90;;;;;;12579714;28;20292;-85
2022/11/07 15:13:23;;;;;;;;;;;13.10;99.90;;;;;;12581493;28;19929;-85
2022/11/07 15:19:25;;;;;;;;;;;13.20;99.90;;;;;;12585082;28;19940;-85
2022/11/07 15:25:37;;;;;;;;;;;13.20;99.90;;;;;;12572811;28;19925;-85
2022/11/07 15:31:46;;;;;;;;;;;13.20;99.90;;;;;;12579068;28;19936;-85
2022/11/07 15:37:54;;;;;;;;;;;13.20;99.90;;;;;;12578972;28;19924;-85
2022/11/07 15:43:56;;;;;;;;;;;13.20;99.90;;;;;;12586402;28;20304;-85
2022/11/07 15:49:58;;;;;;;;;;;13.10;99.90;;;;;;12583714;28;19924;-84
2022/11/07 15:56:00;;;;;;;;;;;13.10;99.90;;;;;;12570223;28;20425;-84
2022/11/07 16:02:03;;;;;;;;;;;13.20;99.90;;;;;;12578632;28;19974;-85
2022/11/07 16:08:06;;;;;;;;;;;13.10;99.90;;;;;;12585587;28;19928;-85
2022/11/07 16:14:18;;;;;;;;;;;13.10;99.90;;;;;;12578461;28;19924;-84
2022/11/07 16:20:40;;;;;;;;;;;13.10;99.90;;;;;;12577529;28;19924;-84
2022/11/07 16:26:43;;;;;;;;;;;13.10;99.90;;;;;;12571945;28;20016;-84
2022/11/07 16:32:45;;;;;;;;;;;13.20;99.90;;;;;;12579454;28;19935;-83
2022/11/07 16:38:48;;;;;;;;;;;13.20;99.90;;;;;;12574845;28;19935;-84
2022/11/07 16:44:50;;;;;;;;;;;13.20;99.90;;;;;;12570912;28;20144;-84
2022/11/07 16:50:53;;;;;;;;;;;13.10;99.90;;;;;;12588341;28;19928;-84
2022/11/07 16:56:55;;;;;;;;;;;13.10;99.90;;;;;;12573502;28;19932;-83
2022/11/07 17:02:57;;;;;;;;;;;13.00;99.90;;;;;;12574132;28;19963;-84
2022/11/07 17:08:59;;;;;;;;;;;13.00;99.90;;;;;;12579193;28;20443;-84
2022/11/07 17:15:09;;;;;;;;;;;13.10;99.90;;;;;;12583299;28;20082;-84
2022/11/07 17:21:39;;;;;;;;;;;13.00;99.90;;;;;;12570684;28;19924;-83
2022/11/07 17:27:42;;;;;;;;;;;13.00;99.90;;;;;;12570946;28;19925;-84
2022/11/07 17:33:43;;;;;;;;;;;12.90;99.90;;;;;;12580927;28;19928;-84
2022/11/07 17:39:47;;;;;;;;;;;13.00;99.90;;;;;;12588446;28;19925;-83
2022/11/07 17:45:48;;;;;;;;;;;13.00;99.90;;;;;;12592116;28;19928;-84
2022/11/07 17:51:53;;;;;;;;;;;13.00;99.90;;;;;;12586448;28;19929;-84
2022/11/07 17:57:54;;;;;;;;;;;13.00;99.90;;;;;;12576455;28;19931;-84
2022/11/07 18:03:56;;;;;;;;;;;13.10;99.90;;;;;;12584783;28;20433;-84
2022/11/07 18:10:00;;;;;;;;;;;13.10;99.90;;;;;;12580531;28;19924;-84
2022/11/07 18:16:09;;;;;;;;;;;13.10;99.90;;;;;;12580588;28;19935;-84
2022/11/07 18:22:11;;;;;;;;;;;13.10;99.90;;;;;;12587510;28;19932;-84
2022/11/07 18:28:12;;;;;;;;;;;13.10;99.90;;;;;;12578644;28;19975;-84
2022/11/07 18:34:14;;;;;;;;;;;13.10;99.90;;;;;;12589515;28;19955;-84
2022/11/07 18:40:16;;;;;;;;;;;13.10;99.90;;;;;;12586493;28;19924;-84
2022/11/07 18:46:18;;;;;;;;;;;13.10;99.90;;;;;;12581509;28;19993;-84
2022/11/07 18:52:20;;;;;;;;;;;13.10;99.90;;;;;;12577033;28;20404;-84
2022/11/07 18:58:22;;;;;;;;;;;13.00;99.90;;;;;;12585034;28;19925;-83
2022/11/07 19:04:23;;;;;;;;;;;13.00;99.90;;;;;;12580397;28;19931;-83
2022/11/07 19:10:26;;;;;;;;;;;12.90;99.90;;;;;;12585297;28;19929;-83
2022/11/07 19:16:28;;;;;;;;;;;12.90;99.90;;;;;;12578681;28;19928;-84
2022/11/07 19:22:30;;;;;;;;;;;12.90;99.90;;;;;;12580658;28;20292;-83
2022/11/07 19:28:32;;;;;;;;;;;12.90;99.90;;;;;;12590790;28;19932;-84
2022/11/07 19:34:34;;;;;;;;;;;12.90;99.90;;;;;;12585465;28;20296;-83
2022/11/07 19:40:35;;;;;;;;;;;13.00;99.90;;;;;;12577492;28;19948;-84
2022/11/07 19:46:37;;;;;;;;;;;12.90;99.90;;;;;;12582354;28;19933;-83
2022/11/07 19:52:39;;;;;;;;;;;12.80;99.90;;;;;;12582050;28;19931;-84
2022/11/07 19:58:41;;;;;;;;;;;12.80;99.90;;;;;;12571167;28;20375;-83
2022/11/07 20:04:43;;;;;;;;;;;12.80;99.90;;;;;;12582244;28;20440;-83
2022/11/07 20:10:45;;;;;;;;;;;12.90;99.90;;;;;;12595292;28;19925;-83
2022/11/07 20:16:47;;;;;;;;;;;12.80;99.90;;;;;;12575573;28;19925;-83
2022/11/07 20:22:48;;;;;;;;;;;12.90;99.90;;;;;;12581046;28;19928;-83
2022/11/07 20:28:50;;;;;;;;;;;13.00;99.90;;;;;;12579353;28;19936;-84
2022/11/07 20:34:52;;;;;;;;;;;12.90;99.90;;;;;;12582783;28;19982;-83
2022/11/07 20:40:55;;;;;;;;;;;13.00;99.90;;;;;;12580997;28;19935;-84
2022/11/07 20:46:56;;;;;;;;;;;13.10;99.90;;;;;;12573225;28;19931;-84
2022/11/07 20:52:58;;;;;;;;;;;13.00;99.90;;;;;;12577038;28;19931;-83
2022/11/07 20:59:01;;;;;;;;;;;13.00;99.90;;;;;;12573734;28;20581;-84
2022/11/07 21:05:02;;;;;;;;;;;13.10;99.90;;;;;;12581167;28;19925;-84
2022/11/07 21:11:18;;;;;;;;;;;13.10;99.90;;;;;;12575420;28;19924;-84
2022/11/07 21:17:20;;;;;;;;;;;13.10;99.90;;;;;;12572287;28;20065;-83
2022/11/07 21:23:25;;;;;;;;;;;13.10;99.90;;;;;;12583637;28;20475;-83
2022/11/07 21:29:27;;;;;;;;;;;13.20;99.90;;;;;;12573357;28;19931;-83
2022/11/07 21:35:30;;;;;;;;;;;13.20;99.90;;;;;;12575988;28;20136;-83
2022/11/07 21:41:34;;;;;;;;;;;13.20;99.90;;;;;;12575262;28;19932;-84
2022/11/07 21:47:36;;;;;;;;;;;13.30;99.90;;;;;;12574472;28;19924;-84
2022/11/07 21:53:43;;;;;;;;;;;13.30;99.90;;;;;;12582152;28;19925;-84
2022/11/07 21:59:45;;;;;;;;;;;13.30;99.90;;;;;;12578679;28;20276;-84
2022/11/07 22:05:46;;;;;;;;;;;13.30;99.90;;;;;;12575508;28;20288;-83
2022/11/07 22:11:48;;;;;;;;;;;13.50;99.90;;;;;;12575091;28;19925;-83
2022/11/07 22:17:51;;;;;;;;;;;13.50;99.90;;;;;;12580076;28;19944;-84
2022/11/07 22:23:54;;;;;;;;;;;13.50;99.90;;;;;;12575534;28;19924;-84
2022/11/07 22:29:56;;;;;;;;;;;13.60;99.90;;;;;;12577216;28;20415;-84
2022/11/07 22:36:04;;;;;;;;;;;13.50;99.90;;;;;;12578988;28;19978;-83
2022/11/07 22:42:05;;;;;;;;;;;13.50;99.90;;;;;;12572838;28;20029;-84
2022/11/07 22:48:08;;;;;;;;;;;13.50;99.90;;;;;;12580778;28;19932;-84
2022/11/07 22:54:10;;;;;;;;;;;13.50;99.90;;;;;;12583340;28;19935;-84
2022/11/07 23:00:12;;;;;;;;;;;13.50;99.90;;;;;;12587463;28;19931;-84
2022/11/07 23:06:23;;;;;;;;;;;13.50;99.90;;;;;;12579530;28;21011;-84
2022/11/07 23:12:24;;;;;;;;;;;13.40;99.90;;;;;;12575146;28;20502;-84
2022/11/07 23:18:26;;;;;;;;;;;13.30;99.90;;;;;;12575891;28;19928;-84
2022/11/07 23:24:28;;;;;;;;;;;13.30;99.90;;;;;;12575855;28;19924;-83
2022/11/07 23:30:29;;;;;;;;;;;13.30;99.90;;;;;;12583789;28;19928;-83
2022/11/07 23:36:31;;;;;;;;;;;13.40;99.90;;;;;;12587123;28;20392;-83
2022/11/07 23:42:33;;;;;;;;;;;13.30;99.90;;;;;;12576715;28;19936;-84
